createdAt,value
2018-01-17T00:00:31.090Z,10
2018-01-17T00:01:41.151Z,9.98
2018-01-17T00:02:51.215Z,10.02
2018-01-17T00:04:01.004Z,10.03
2018-01-17T00:05:11.153Z,10.08
2018-01-17T00:06:21.011Z,10.05
2018-01-17T00:07:31.043Z,10.08
2018-01-17T00:08:40.832Z,10.08
2018-01-17T00:09:50.913Z,10.08
2018-01-17T00:11:00.707Z,10.08
2018-01-17T00:12:10.802Z,10.07
2018-01-17T00:13:21.096Z,10.03
2018-01-17T00:14:31.153Z,10.08
2018-01-17T00:15:40.950Z,9.92
2018-01-17T00:16:50.747Z,9.95
2018-01-17T00:18:00.534Z,9.9
2018-01-17T00:19:10.580Z,9.93
2018-01-17T00:20:20.380Z,9.85
2018-01-17T00:21:30.439Z,9.85
2018-01-17T00:22:40.245Z,9.8
2018-01-17T00:23:50.080Z,9.77
2018-01-17T00:25:00.129Z,9.71
2018-01-17T00:26:09.914Z,9.7
2018-01-17T00:27:19.714Z,9.57
2018-01-17T00:28:29.770Z,9.62
2018-01-17T00:29:39.601Z,9.47
2018-01-17T00:30:49.637Z,9.47
2018-01-17T00:31:59.430Z,9.3
2018-01-17T00:33:09.472Z,9.26
2018-01-17T00:34:19.513Z,9.29
2018-01-17T00:35:29.557Z,9.19
2018-01-17T00:36:40.161Z,9.2
2018-01-17T00:37:49.683Z,9.16
2018-01-17T00:38:59.730Z,9.08
2018-01-17T00:40:09.541Z,8.94
2018-01-17T00:41:19.610Z,8.95
2018-01-17T00:42:29.650Z,8.86
2018-01-17T00:43:39.689Z,8.79
2018-01-17T00:44:49.734Z,8.8
2018-01-17T00:45:59.770Z,8.8
2018-01-17T00:47:09.832Z,8.83
2018-01-17T00:48:19.613Z,8.85
2018-01-17T00:49:29.716Z,8.69
2018-01-17T00:50:39.760Z,8.68
2018-01-17T00:51:49.819Z,8.72
2018-01-17T00:52:59.602Z,8.67
2018-01-17T00:54:09.393Z,8.69
2018-01-17T00:55:19.432Z,8.69
2018-01-17T00:56:29.470Z,8.57
2018-01-17T00:57:38.993Z,8.57
2018-01-17T00:58:48.827Z,8.53
2018-01-17T00:59:58.608Z,8.47
2018-01-17T01:01:08.664Z,8.46
2018-01-17T01:02:18.713Z,8.47
2018-01-17T01:03:28.230Z,8.5
2018-01-17T01:04:38.078Z,8.44
2018-01-17T01:05:48.119Z,8.46
2018-01-17T01:06:58.165Z,8.43
2018-01-17T01:08:08.220Z,8.44
2018-01-17T01:09:18.275Z,8.47
2018-01-17T01:10:28.377Z,8.43
2018-01-17T01:11:38.419Z,8.36
2018-01-17T01:12:49.067Z,8.42
2018-01-17T01:13:58.857Z,8.29
2018-01-17T01:15:08.914Z,8.39
2018-01-17T01:16:18.954Z,8.35
2018-01-17T01:17:28.992Z,8.29
2018-01-17T01:18:39.029Z,8.34
2018-01-17T01:19:49.205Z,8.26
2018-01-17T01:20:58.735Z,8.29
2018-01-17T01:22:08.839Z,8.31
2018-01-17T01:23:18.641Z,8.26
2018-01-17T01:24:28.428Z,8.32
2018-01-17T01:25:38.009Z,8.36
2018-01-17T01:26:48.057Z,8.24
2018-01-17T01:27:57.643Z,8.24
2018-01-17T01:29:07.693Z,8.26
2018-01-17T01:30:17.744Z,8.16
2018-01-17T01:31:27.798Z,8.19
2018-01-17T01:32:37.846Z,8.19
2018-01-17T01:33:47.654Z,8.21
2018-01-17T01:34:57.694Z,8.13
2018-01-17T01:36:07.740Z,8.17
2018-01-17T01:37:17.546Z,8.21
2018-01-17T01:38:27.340Z,8.14
2018-01-17T01:39:37.437Z,8.17
2018-01-17T01:40:47.489Z,8.16
2018-01-17T01:41:57.279Z,8.14
2018-01-17T01:43:07.333Z,8.14
2018-01-17T01:44:17.118Z,8.14
2018-01-17T01:45:27.001Z,8.14
2018-01-17T01:46:37.042Z,8.17
2018-01-17T01:47:47.083Z,8.14
2018-01-17T01:48:57.128Z,8.22
2018-01-17T01:50:06.928Z,8.22
2018-01-17T01:51:16.969Z,8.19
2018-01-17T01:52:26.745Z,8.19
2018-01-17T01:57:40.661Z,8.09
2018-01-17T01:58:50.699Z,8.14
2018-01-17T02:00:00.479Z,8.11
2018-01-17T02:01:10.532Z,8.14
2018-01-17T02:02:20.585Z,8.11
2018-01-17T02:03:30.622Z,8.11
2018-01-17T02:04:40.421Z,8.13
2018-01-17T02:05:49.709Z,8.14
2018-01-17T02:06:59.749Z,8.11
2018-01-17T02:08:09.949Z,8.16
2018-01-17T02:09:19.488Z,8.17
2018-01-17T02:10:29.534Z,8.17
2018-01-17T02:11:39.593Z,8.14
2018-01-17T02:12:49.645Z,8.14
2018-01-17T02:13:59.708Z,8.13
2018-01-17T02:15:09.804Z,8.14
2018-01-17T02:16:19.841Z,8.07
2018-01-17T02:17:29.640Z,8.09
2018-01-17T02:18:39.435Z,8.11
2018-01-17T02:19:49.487Z,8.09
2018-01-17T02:20:59.334Z,8.14
2018-01-17T02:22:09.375Z,8.14
2018-01-17T02:23:19.152Z,8.11
2018-01-17T02:24:28.953Z,8.07
2018-01-17T02:25:38.990Z,8.16
2018-01-17T02:26:49.087Z,8.13
2018-01-17T02:27:59.140Z,8.13
2018-01-17T02:29:08.936Z,8.1
2018-01-17T02:30:18.974Z,8.07
2018-01-17T02:31:29.010Z,8.11
2018-01-17T02:32:39.110Z,8.04
2018-01-17T02:33:49.167Z,8.13
2018-01-17T02:34:58.946Z,7.98
2018-01-17T02:36:09.016Z,8.07
2018-01-17T02:37:18.812Z,8.01
2018-01-17T02:38:28.402Z,8.03
2018-01-17T02:39:38.444Z,8.03
2018-01-17T02:40:48.497Z,8.03
2018-01-17T02:41:58.289Z,7.98
2018-01-17T02:43:08.374Z,8.06
2018-01-17T02:44:18.469Z,7.93
2018-01-17T02:45:28.516Z,8.07
2018-01-17T02:46:38.569Z,8.04
2018-01-17T02:47:48.399Z,7.95
2018-01-17T02:48:58.176Z,8.06
2018-01-17T02:50:08.692Z,7.93
2018-01-17T02:51:18.755Z,7.95
2018-01-17T02:52:28.810Z,7.92
2018-01-17T02:53:38.847Z,7.93
2018-01-17T02:54:48.903Z,7.99
2018-01-17T02:55:59.007Z,7.92
2018-01-17T02:57:08.881Z,7.92
2018-01-17T02:58:18.669Z,8.01
2018-01-17T02:59:28.461Z,7.92
2018-01-17T03:00:38.251Z,7.95
2018-01-17T03:01:48.311Z,7.92
2018-01-17T03:02:57.841Z,7.92
2018-01-17T03:34:35.400Z,5.36
2018-01-17T03:35:45.286Z,5.23
2018-01-17T03:36:55.322Z,5.18
2018-01-17T03:38:05.870Z,5.27
2018-01-17T03:39:15.917Z,5.41
2018-01-17T03:40:25.982Z,5.31
2018-01-17T03:41:36.088Z,5.46
2018-01-17T03:42:46.131Z,5.59
2018-01-17T03:43:56.183Z,5.78
2018-01-17T03:45:06.226Z,5.82
2018-01-17T03:46:16.274Z,5.91
2018-01-17T03:47:26.104Z,6.03
2018-01-17T03:48:36.204Z,6.15
2018-01-17T03:49:46.247Z,6.21
2018-01-17T03:50:56.279Z,6.36
2018-01-17T03:52:05.796Z,6.46
2018-01-17T03:53:15.589Z,6.42
2018-01-17T03:54:25.654Z,6.55
2018-01-17T03:55:35.687Z,6.68
2018-01-17T03:56:45.734Z,6.68
2018-01-17T03:57:55.766Z,6.79
2018-01-17T03:59:05.618Z,6.76
2018-01-17T04:00:15.652Z,6.78
2018-01-17T04:01:25.688Z,6.8
2018-01-17T04:02:35.752Z,6.95
2018-01-17T04:03:45.808Z,6.93
2018-01-17T04:04:55.851Z,7.01
2018-01-17T04:06:05.621Z,7.04
2018-01-17T04:07:15.426Z,7.01
2018-01-17T04:08:25.485Z,7.09
2018-01-17T04:09:35.558Z,7.09
2018-01-17T04:10:45.660Z,7.21
2018-01-17T04:11:55.810Z,7.18
2018-01-17T04:13:05.612Z,7.26
2018-01-17T04:14:15.704Z,7.22
2018-01-17T04:15:25.211Z,7.3
2018-01-17T04:16:35.266Z,7.36
2018-01-17T04:17:45.310Z,7.37
2018-01-17T04:18:55.361Z,7.34
2018-01-17T04:20:04.937Z,7.37
2018-01-17T04:21:14.971Z,7.44
2018-01-17T04:22:24.804Z,7.44
2018-01-17T04:23:34.843Z,7.45
2018-01-17T04:24:45.338Z,7.44
2018-01-17T04:25:55.785Z,7.34
2018-01-17T04:27:05.610Z,7.36
2018-01-17T04:28:15.706Z,7.31
2018-01-17T04:29:25.496Z,7.36
2018-01-17T04:30:35.541Z,7.33
2018-01-17T04:31:45.325Z,7.34
2018-01-17T04:32:55.369Z,7.36
2018-01-17T04:34:04.904Z,7.39
2018-01-17T04:35:14.941Z,7.39
2018-01-17T04:36:24.734Z,7.19
2018-01-17T04:37:34.779Z,7.39
2018-01-17T04:38:44.316Z,7.34
2018-01-17T04:39:54.363Z,7.26
2018-01-17T04:41:04.409Z,7.27
2018-01-17T04:42:14.458Z,7.22
2018-01-17T04:43:24.519Z,7.29
2018-01-17T04:44:34.310Z,7.23
2018-01-17T04:45:44.418Z,7.26
2018-01-17T04:46:54.483Z,7.33
2018-01-17T04:48:04.529Z,7.19
2018-01-17T04:49:14.593Z,7.19
2018-01-17T04:50:24.634Z,7.31
2018-01-17T04:51:34.734Z,7.36
2018-01-17T04:52:44.773Z,7.39
2018-01-17T04:53:54.803Z,7.33
2018-01-17T04:55:04.605Z,7.37
2018-01-17T04:56:15.113Z,7.19
2018-01-17T04:57:25.142Z,7.31
2018-01-17T04:58:35.185Z,7.23
2018-01-17T04:59:45.239Z,7.36
2018-01-17T05:00:55.018Z,7.34
2018-01-17T05:02:05.063Z,7.34
2018-01-17T05:03:15.098Z,7.37
2018-01-17T05:04:25.185Z,7.36
2018-01-17T05:05:35.227Z,7.39
2018-01-17T05:06:45.274Z,7.39
2018-01-17T05:07:54.829Z,7.36
2018-01-17T05:09:04.664Z,7.31
2018-01-17T05:10:14.706Z,7.37
2018-01-17T05:11:24.749Z,7.34
2018-01-17T05:12:34.801Z,7.37
2018-01-17T05:13:44.855Z,7.34
2018-01-17T05:14:54.915Z,7.41
2018-01-17T05:16:04.974Z,7.36
2018-01-17T05:17:15.031Z,7.45
2018-01-17T05:18:24.288Z,7.44
2018-01-17T05:19:34.333Z,7.51
2018-01-17T05:20:44.438Z,7.48
2018-01-17T05:21:54.482Z,7.51
2018-01-17T05:23:04.532Z,7.54
2018-01-17T05:24:14.585Z,7.59
2018-01-17T05:25:24.112Z,7.59
2018-01-17T05:26:33.988Z,7.58
2018-01-17T05:27:43.506Z,7.7
2018-01-17T05:28:53.558Z,7.68
2018-01-17T05:30:03.342Z,7.68
2018-01-17T05:31:13.426Z,7.73
2018-01-17T05:32:23.466Z,7.74
2018-01-17T05:33:33.511Z,7.75
2018-01-17T05:34:43.556Z,7.77
2018-01-17T05:35:53.087Z,7.78
2018-01-17T05:37:02.884Z,7.71
2018-01-17T05:38:13.001Z,7.73
2018-01-17T05:39:23.098Z,7.7
2018-01-17T05:40:32.880Z,7.75
2018-01-17T05:41:42.935Z,7.7
2018-01-17T05:42:53.062Z,7.68
2018-01-17T05:44:02.838Z,7.58
2018-01-17T05:45:12.895Z,7.56
2018-01-17T05:46:22.942Z,7.55
2018-01-17T05:47:32.730Z,7.58
2018-01-17T05:48:42.774Z,7.51
2018-01-17T05:49:52.562Z,7.37
2018-01-17T05:51:02.604Z,7.37
2018-01-17T05:52:12.377Z,7.37
2018-01-17T05:53:22.434Z,7.27
2018-01-17T05:54:32.479Z,7.26
2018-01-17T05:55:42.592Z,7.23
2018-01-17T05:56:52.384Z,7.23
2018-01-17T05:58:02.165Z,7.26
2018-01-17T05:59:12.227Z,7.19
2018-01-17T06:00:22.026Z,7.16
2018-01-17T06:01:32.105Z,7.18
2018-01-17T06:02:42.179Z,7.13
2018-01-17T06:03:52.223Z,7.11
2018-01-17T06:05:02.274Z,7.11
2018-01-17T06:06:12.068Z,7.12
2018-01-17T06:07:22.118Z,7.01
2018-01-17T06:08:31.896Z,7.04
2018-01-17T06:09:41.943Z,6.91
2018-01-17T06:10:52.008Z,7.01
2018-01-17T06:12:02.087Z,6.98
2018-01-17T06:13:12.158Z,6.95
2018-01-17T06:14:22.563Z,6.98
2018-01-17T06:15:32.370Z,7
2018-01-17T06:16:42.283Z,6.93
2018-01-17T06:17:52.340Z,6.97
2018-01-17T06:19:02.369Z,6.93
2018-01-17T06:20:12.148Z,6.91
2018-01-17T06:21:21.936Z,6.85
2018-01-17T06:22:31.731Z,6.82
2018-01-17T06:23:41.783Z,6.83
2018-01-17T06:24:51.562Z,6.85
2018-01-17T06:26:01.360Z,6.76
2018-01-17T06:27:11.424Z,6.78
2018-01-17T06:28:21.469Z,6.72
2018-01-17T06:29:31.527Z,6.76
2018-01-17T06:30:41.664Z,6.62
2018-01-17T06:31:51.447Z,6.75
2018-01-17T06:33:02.139Z,6.68
2018-01-17T06:34:12.168Z,6.72
2018-01-17T06:35:22.213Z,6.73
2018-01-17T06:36:32.308Z,6.73
2018-01-17T06:37:42.360Z,6.75
2018-01-17T06:38:52.396Z,6.67
2018-01-17T06:40:02.480Z,6.68
2018-01-17T06:41:12.529Z,6.67
2018-01-17T06:42:22.668Z,6.54
2018-01-17T06:43:32.720Z,6.57
2018-01-17T06:44:42.775Z,6.57
2018-01-17T06:45:52.826Z,6.61
2018-01-17T06:47:02.888Z,6.57
2018-01-17T06:48:12.942Z,6.47
2018-01-17T06:49:22.978Z,6.51
2018-01-17T06:50:32.794Z,6.51
2018-01-17T06:51:42.846Z,6.51
2018-01-17T06:52:52.893Z,6.49
2018-01-17T06:54:02.721Z,6.46
2018-01-17T06:55:12.767Z,6.43
2018-01-17T06:56:22.798Z,6.47
2018-01-17T06:57:32.840Z,6.47
2018-01-17T06:58:42.926Z,6.46
2018-01-17T06:59:52.757Z,6.47
2018-01-17T07:01:02.540Z,6.52
2018-01-17T07:02:12.592Z,6.52
2018-01-17T07:03:22.372Z,6.51
2018-01-17T07:04:32.425Z,6.52
2018-01-17T07:05:42.467Z,6.7
2018-01-17T07:06:52.523Z,6.67
2018-01-17T07:08:02.565Z,6.73
2018-01-17T07:09:12.599Z,6.79
2018-01-17T07:10:22.654Z,6.64
2018-01-17T07:11:32.486Z,6.79
2018-01-17T07:12:42.532Z,6.9
2018-01-17T07:13:52.591Z,7
2018-01-17T07:15:02.637Z,6.94
2018-01-17T07:16:12.422Z,6.98
2018-01-17T07:17:22.450Z,7
2018-01-17T07:18:32.502Z,7.04
2018-01-17T07:19:42.533Z,7.09
2018-01-17T07:20:52.344Z,7.15
2018-01-17T07:22:02.391Z,7.23
2018-01-17T07:23:12.443Z,7.22
2018-01-17T07:24:22.241Z,7.56
2018-01-17T07:25:32.283Z,7.71
2018-01-17T07:26:42.077Z,7.83
2018-01-17T07:27:52.120Z,7.99
2018-01-17T07:29:02.219Z,8.04
2018-01-17T07:30:12.538Z,8.19
2018-01-17T07:31:22.593Z,8.35
2018-01-17T07:32:32.384Z,8.43
2018-01-17T07:33:42.168Z,8.5
2018-01-17T07:34:52.261Z,8.71
2018-01-17T07:36:02.323Z,8.74
2018-01-17T07:37:12.116Z,9.03
2018-01-17T07:38:22.152Z,9.23
2018-01-17T07:39:31.923Z,9.16
2018-01-17T07:40:41.825Z,9.21
2018-01-17T07:41:51.649Z,9.17
2018-01-17T07:43:01.702Z,9.23
2018-01-17T07:44:11.505Z,9.27
2018-01-17T07:45:21.301Z,9.24
2018-01-17T07:46:31.468Z,9.27
2018-01-17T07:47:41.516Z,9.35
2018-01-17T07:48:51.057Z,9.3
2018-01-17T07:50:00.852Z,9.42
2018-01-17T07:51:10.650Z,9.44
2018-01-17T07:52:20.448Z,9.52
2018-01-17T07:53:30.126Z,9.52
2018-01-17T07:54:39.909Z,9.67
2018-01-17T07:55:50.024Z,9.62
2018-01-17T07:56:59.812Z,9.82
2018-01-17T07:58:09.873Z,9.81
2018-01-17T07:59:19.924Z,9.84
2018-01-17T08:00:29.978Z,9.84
2018-01-17T08:01:40.034Z,9.88
2018-01-17T08:02:49.298Z,9.82
2018-01-17T08:03:59.452Z,9.85
2018-01-17T08:05:09.239Z,9.77
2018-01-17T08:06:19.040Z,9.67
2018-01-17T08:07:29.093Z,9.6
2018-01-17T08:08:39.143Z,9.48
2018-01-17T08:09:48.743Z,9.35
2018-01-17T08:10:58.532Z,9.3
2018-01-17T08:12:08.581Z,9.2
2018-01-17T08:13:18.363Z,9.26
2018-01-17T08:14:28.175Z,9.29
2018-01-17T08:15:37.961Z,9.26
2018-01-17T08:16:48.014Z,9.23
2018-01-17T08:17:58.061Z,9.24
2018-01-17T08:19:08.111Z,9.23
2018-01-17T08:20:18.191Z,9.24
2018-01-17T08:21:28.247Z,9.17
2018-01-17T08:22:37.769Z,9.24
2018-01-17T08:23:47.821Z,9.26
2018-01-17T08:24:57.602Z,9.21
2018-01-17T08:26:07.681Z,9.24
2018-01-17T08:27:17.774Z,9.19
2018-01-17T08:28:27.305Z,9.23
2018-01-17T08:29:37.363Z,9.24
2018-01-17T08:30:47.430Z,9.3
2018-01-17T08:31:57.476Z,9.44
2018-01-17T08:33:07.063Z,9.55
2018-01-17T08:34:17.048Z,9.52
2018-01-17T08:35:27.102Z,9.6
2018-01-17T08:36:36.628Z,9.56
2018-01-17T08:37:46.417Z,9.64
2018-01-17T08:38:56.589Z,9.63
2018-01-17T08:40:06.409Z,9.77
2018-01-17T08:41:16.464Z,9.81
2018-01-17T08:42:26.515Z,9.81
2018-01-17T08:43:36.570Z,9.99
2018-01-17T08:44:46.408Z,10.17
2018-01-17T08:45:56.481Z,10.32
2018-01-17T08:47:07.633Z,10.54
2018-01-17T08:48:17.676Z,10.58
2018-01-17T08:49:27.515Z,10.58
2018-01-17T08:50:37.560Z,10.77
2018-01-17T08:51:47.622Z,10.87
2018-01-17T08:52:57.659Z,11.24
2018-01-17T08:54:07.710Z,11.3
2018-01-17T08:55:17.227Z,11.48
2018-01-17T08:56:27.076Z,11.85
2018-01-17T08:57:36.396Z,12.11
2018-01-17T08:58:46.191Z,12.08
2018-01-17T08:59:55.987Z,11.91
2018-01-17T09:01:06.047Z,11.97
2018-01-17T09:02:15.845Z,11.95
2018-01-17T09:03:25.622Z,11.95
2018-01-17T09:04:35.668Z,11.79
2018-01-17T09:05:45.730Z,11.78
2018-01-17T09:06:55.779Z,11.78
2018-01-17T09:08:05.909Z,11.82
2018-01-17T09:09:15.968Z,11.91
2018-01-17T09:10:26.027Z,12.11
2018-01-17T09:11:36.071Z,12.07
2018-01-17T09:12:46.124Z,12.18
2018-01-17T09:13:56.292Z,12.59
2018-01-17T09:15:06.108Z,12.84
2018-01-17T09:16:16.208Z,12.92
2018-01-17T09:17:26.273Z,13.11
2018-01-17T09:18:36.315Z,13.31
2018-01-17T09:19:46.377Z,13.4
2018-01-17T09:20:56.471Z,13.6
2018-01-17T09:22:06.518Z,13.63
2018-01-17T09:23:16.046Z,13.9
2018-01-17T09:24:26.116Z,14.05
2018-01-17T09:25:35.931Z,14.28
2018-01-17T09:26:45.975Z,14.27
2018-01-17T09:27:56.029Z,14.26
2018-01-17T09:29:06.083Z,14.3
2018-01-17T09:30:16.121Z,14.13
2018-01-17T09:31:26.239Z,13.9
2018-01-17T09:32:36.298Z,13.66
2018-01-17T09:33:46.351Z,13.2
2018-01-17T09:34:56.412Z,12.81
2018-01-17T09:36:06.473Z,12.31
2018-01-17T09:37:16.336Z,11.91
2018-01-17T09:38:26.409Z,11.68
2018-01-17T09:39:35.677Z,11.52
2018-01-17T09:40:45.478Z,11.35
2018-01-17T09:41:55.515Z,11.38
2018-01-17T09:43:05.304Z,11.46
2018-01-17T09:44:15.101Z,11.46
2018-01-17T09:45:25.159Z,11.18
2018-01-17T09:46:35.253Z,11.13
2018-01-17T09:47:45.046Z,11.02
2018-01-17T09:48:54.884Z,10.76
2018-01-17T09:50:04.975Z,10.84
2018-01-17T09:51:15.054Z,10.65
2018-01-17T09:52:24.848Z,10.58
2018-01-17T09:53:34.902Z,10.54
2018-01-17T09:54:45.025Z,10.54
2018-01-17T09:55:55.074Z,10.51
2018-01-17T09:57:05.154Z,10.57
2018-01-17T09:58:15.197Z,10.63
2018-01-17T09:59:25.240Z,10.8
2018-01-17T10:00:35.305Z,11
2018-01-17T10:01:45.089Z,10.97
2018-01-17T10:02:54.621Z,10.88
2018-01-17T10:04:04.417Z,10.91
2018-01-17T10:05:14.462Z,10.73
2018-01-17T10:06:24.298Z,10.76
2018-01-17T10:07:34.362Z,10.69
2018-01-17T10:08:44.429Z,10.55
2018-01-17T10:09:54.458Z,10.44
2018-01-17T10:11:04.508Z,10.25
2018-01-17T10:12:14.363Z,10.29
2018-01-17T10:13:24.410Z,10.29
2018-01-17T10:14:34.454Z,10.29
2018-01-17T10:15:44.495Z,10.32
2018-01-17T10:16:54.558Z,10.21
2018-01-17T10:18:04.405Z,10.15
2018-01-17T10:19:14.448Z,10.08
2018-01-17T10:20:24.266Z,9.93
2018-01-17T10:21:33.827Z,9.88
2018-01-17T10:22:43.876Z,9.85
2018-01-17T10:23:54.005Z,9.89
2018-01-17T10:25:04.073Z,9.64
2018-01-17T10:26:14.157Z,9.59
2018-01-17T10:27:24.210Z,9.5
2018-01-17T10:28:34.055Z,9.5
2018-01-17T10:29:43.852Z,9.53
2018-01-17T10:30:53.906Z,9.7
2018-01-17T10:32:03.695Z,9.64
2018-01-17T10:33:13.499Z,9.67
2018-01-17T10:34:23.287Z,9.77
2018-01-17T10:35:33.748Z,9.84
2018-01-17T10:36:43.795Z,9.84
2018-01-17T10:37:53.846Z,10.07
2018-01-17T10:39:03.895Z,10.05
2018-01-17T10:40:14.186Z,10.13
2018-01-17T10:41:24.512Z,10.02
2018-01-17T10:42:34.735Z,10.15
2018-01-17T10:43:44.805Z,10.23
2018-01-17T10:44:54.592Z,10.23
2018-01-17T10:46:04.646Z,10.23
2018-01-17T10:47:14.746Z,10.35
2018-01-17T10:48:24.808Z,10.36
2018-01-17T10:49:34.868Z,10.57
2018-01-17T10:50:44.918Z,10.51
2018-01-17T10:51:54.975Z,10.58
2018-01-17T10:53:04.824Z,10.66
2018-01-17T10:54:14.871Z,10.75
2018-01-17T10:55:24.933Z,10.79
2018-01-17T10:56:34.720Z,10.76
2018-01-17T10:57:44.509Z,10.85
2018-01-17T10:58:55.617Z,10.84
2018-01-17T11:00:05.677Z,10.76
2018-01-17T11:01:15.766Z,10.83
2018-01-17T11:02:25.824Z,10.84
2018-01-17T11:03:35.872Z,10.83
2018-01-17T11:04:45.923Z,10.79
2018-01-17T11:05:55.972Z,10.91
2018-01-17T11:07:06.016Z,10.91
2018-01-17T11:08:16.077Z,10.87
2018-01-17T11:09:25.859Z,10.88
2018-01-17T11:10:35.636Z,10.83
2018-01-17T11:11:45.700Z,10.87
2018-01-17T11:12:56.042Z,10.8
2018-01-17T11:14:06.094Z,10.8
2018-01-17T11:15:16.359Z,10.77
2018-01-17T11:16:28.724Z,10.77
2018-01-17T11:17:41.736Z,10.84
2018-01-17T11:18:54.180Z,10.9
2018-01-17T11:20:04.231Z,10.84
2018-01-17T11:21:14.286Z,10.95
2018-01-17T11:22:25.293Z,11.05
2018-01-17T11:23:35.384Z,11.16
2018-01-17T11:24:45.965Z,11.34
2018-01-17T11:25:56.040Z,11.42
2018-01-17T11:27:06.086Z,11.46
2018-01-17T11:28:16.143Z,11.59
2018-01-17T11:29:26.219Z,11.66
2018-01-17T11:30:36.031Z,11.75
2018-01-17T11:31:46.098Z,11.91
2018-01-17T11:32:55.637Z,12.13
2018-01-17T11:34:05.734Z,12.4
2018-01-17T11:35:15.790Z,12.59
2018-01-17T11:36:25.831Z,12.86
2018-01-17T11:37:35.632Z,12.89
2018-01-17T11:38:45.697Z,13.06
2018-01-17T11:39:55.877Z,13.13
2018-01-17T11:41:05.974Z,13.16
2018-01-17T11:42:16.051Z,13.14
2018-01-17T11:43:25.847Z,13.28
2018-01-17T11:44:36.415Z,13.25
2018-01-17T11:45:46.491Z,13.28
2018-01-17T11:46:56.302Z,13.35
2018-01-17T11:48:06.115Z,13.58
2018-01-17T11:49:15.943Z,13.68
2018-01-17T11:50:25.743Z,13.72
2018-01-17T11:51:35.810Z,13.86
2018-01-17T11:52:45.886Z,13.84
2018-01-17T11:53:55.955Z,13.88
2018-01-17T11:55:06.046Z,13.87
2018-01-17T11:56:16.096Z,13.94
2018-01-17T11:57:26.176Z,13.76
2018-01-17T11:58:36.253Z,13.65
2018-01-17T11:59:47.169Z,13.68
2018-01-17T12:00:58.084Z,13.6
2018-01-17T12:02:08.170Z,13.63
2018-01-17T12:03:18.277Z,13.6
2018-01-17T12:04:29.081Z,13.42
2018-01-17T12:05:39.145Z,13.39
2018-01-17T12:06:49.205Z,13.11
2018-01-17T12:07:59.304Z,12.86
2018-01-17T12:09:09.112Z,12.76
2018-01-17T12:10:19.183Z,12.74
2018-01-17T12:11:29.281Z,12.7
2018-01-17T12:12:40.110Z,12.25
2018-01-17T12:13:49.646Z,12.13
2018-01-17T12:14:59.773Z,12.19
2018-01-17T12:16:09.822Z,12.36
2018-01-17T12:17:20.995Z,12.2
2018-01-17T12:18:31.073Z,12.34
2018-01-17T12:19:41.141Z,12.47
2018-01-17T12:20:51.281Z,12.41
2018-01-17T12:22:01.327Z,12.34
2018-01-17T12:23:11.399Z,12.25
2018-01-17T12:24:21.469Z,12.03
2018-01-17T12:25:31.553Z,11.97
2018-01-17T12:26:41.348Z,11.89
2018-01-17T12:27:51.123Z,12.03
2018-01-17T12:29:01.207Z,12.07
2018-01-17T12:30:10.992Z,12.15
2018-01-17T12:31:20.790Z,12.1
2018-01-17T12:32:30.651Z,12.2
2018-01-17T12:33:40.775Z,12.31
2018-01-17T12:34:50.860Z,12.48
2018-01-17T12:36:00.915Z,12.58
2018-01-17T12:37:10.195Z,12.8
2018-01-17T12:38:20.399Z,12.62
2018-01-17T12:39:30.476Z,12.62
2018-01-17T12:40:42.866Z,12.33
2018-01-17T12:41:53.272Z,12.19
2018-01-17T12:43:03.326Z,12.13
2018-01-17T12:44:13.169Z,12.51
2018-01-17T12:45:23.210Z,13.06
2018-01-17T12:46:33.281Z,13.35
2018-01-17T12:47:43.369Z,13.7
2018-01-17T12:48:52.916Z,13.14
2018-01-17T12:50:02.722Z,12.88
2018-01-17T12:51:12.585Z,12.77
2018-01-17T12:52:22.397Z,12.44
2018-01-17T12:53:33.279Z,11.91
2018-01-17T12:54:43.086Z,11.51
2018-01-17T12:55:53.159Z,11.18
2018-01-17T12:57:02.961Z,10.91
2018-01-17T12:58:13.020Z,10.7
2018-01-17T12:59:22.808Z,10.49
2018-01-17T13:00:32.617Z,10.41
2018-01-17T13:01:42.740Z,10.29
2018-01-17T13:02:52.802Z,10.38
2018-01-17T13:04:02.879Z,10.38
2018-01-17T13:05:12.960Z,10.33
2018-01-17T13:06:23.147Z,10.31
2018-01-17T13:07:34.705Z,10.11
2018-01-17T13:08:44.525Z,9.99
2018-01-17T13:09:54.658Z,9.92
2018-01-17T13:11:04.276Z,9.84
2018-01-17T13:12:14.210Z,9.77
2018-01-17T13:13:24.441Z,9.8
2018-01-17T13:14:34.616Z,9.72
2018-01-17T13:15:44.732Z,9.74
2018-01-17T13:16:54.623Z,9.72
2018-01-17T13:18:04.495Z,9.66
2018-01-17T13:19:14.649Z,9.63
2018-01-17T13:20:24.244Z,9.67
2018-01-17T13:21:35.117Z,9.78
2018-01-17T13:22:44.976Z,10.17
2018-01-17T13:23:55.098Z,10.46
2018-01-17T13:25:05.086Z,10.85
2018-01-17T13:26:15.270Z,11.12
2018-01-17T13:27:24.913Z,11.3
2018-01-17T13:28:34.779Z,11.46
2018-01-17T13:29:44.575Z,11.51
2018-01-17T13:30:54.685Z,11.66
2018-01-17T13:32:04.757Z,11.73
2018-01-17T13:33:14.809Z,11.81
2018-01-17T13:34:24.614Z,11.67
2018-01-17T13:35:34.709Z,11.73
2018-01-17T13:36:44.824Z,11.73
2018-01-17T13:37:54.885Z,11.81
2018-01-17T13:39:04.966Z,11.84
2018-01-17T13:40:14.777Z,11.91
2018-01-17T13:41:24.617Z,11.95
2018-01-17T13:42:34.724Z,11.91
2018-01-17T13:43:44.616Z,11.84
2018-01-17T13:44:54.686Z,11.56
2018-01-17T13:46:04.742Z,11.57
2018-01-17T13:47:14.542Z,11.7
2018-01-17T13:48:24.429Z,11.43
2018-01-17T13:49:34.558Z,11.23
2018-01-17T13:50:44.726Z,10.94
2018-01-17T13:51:54.624Z,10.79
2018-01-17T13:53:04.753Z,10.83
2018-01-17T13:54:14.873Z,10.69
2018-01-17T13:55:24.750Z,10.51
2018-01-17T13:56:35.926Z,10.51
2018-01-17T13:57:45.960Z,10.75
2018-01-17T13:58:55.759Z,10.63
2018-01-17T14:00:05.865Z,10.44
2018-01-17T14:01:15.925Z,10.13
2018-01-17T14:02:25.985Z,10.05
2018-01-17T14:03:35.808Z,9.92
2018-01-17T14:04:45.888Z,9.78
2018-01-17T14:05:55.994Z,9.66
2018-01-17T14:07:06.262Z,9.5
2018-01-17T14:08:16.315Z,9.38
2018-01-17T14:09:26.375Z,9.35
2018-01-17T14:10:36.191Z,9.37
2018-01-17T14:11:46.324Z,9.3
2018-01-17T14:12:56.372Z,9.38
2018-01-17T14:14:06.491Z,9.39
2018-01-17T14:15:16.355Z,9.56
2018-01-17T14:16:26.462Z,9.6
2018-01-17T14:17:36.601Z,9.63
2018-01-17T14:18:46.791Z,9.6
2018-01-17T14:19:56.614Z,9.62
2018-01-17T14:21:06.687Z,9.64
2018-01-17T14:22:17.193Z,9.84
2018-01-17T14:23:27.377Z,9.81
2018-01-17T14:24:37.288Z,9.77
2018-01-17T14:25:47.364Z,9.66
2018-01-17T14:26:57.435Z,9.59
2018-01-17T14:28:07.263Z,9.71
2018-01-17T14:29:17.466Z,9.64
2018-01-17T14:30:27.575Z,9.64
2018-01-17T14:31:37.670Z,9.6
2018-01-17T14:32:47.721Z,9.55
2018-01-17T14:33:57.830Z,9.55
2018-01-17T14:35:07.964Z,9.53
2018-01-17T14:36:17.762Z,9.5
2018-01-17T14:37:27.830Z,9.44
2018-01-17T14:38:37.875Z,9.42
2018-01-17T14:39:47.916Z,9.52
2018-01-17T14:40:57.494Z,9.62
2018-01-17T14:42:07.542Z,9.57
2018-01-17T14:43:17.361Z,9.53
2018-01-17T14:44:27.435Z,9.53
2018-01-17T14:45:37.497Z,9.45
2018-01-17T14:46:47.588Z,9.34
2018-01-17T14:47:59.284Z,9.27
2018-01-17T14:49:09.085Z,9.24
2018-01-17T14:50:19.149Z,9.17
2018-01-17T14:51:29.200Z,9.19
2018-01-17T14:52:39.335Z,9.11
2018-01-17T14:53:49.433Z,8.92
2018-01-17T14:54:59.250Z,8.77
2018-01-17T14:56:09.035Z,8.76
2018-01-17T14:57:18.824Z,8.86
2018-01-17T14:58:28.629Z,8.8
2018-01-17T14:59:38.426Z,8.79
2018-01-17T15:00:48.232Z,8.71
2018-01-17T15:01:58.286Z,8.71
2018-01-17T15:03:08.111Z,8.61
2018-01-17T15:04:18.216Z,8.58
2018-01-17T15:05:28.326Z,8.46
2018-01-17T15:06:38.102Z,8.44
2018-01-17T15:07:49.219Z,8.44
2018-01-17T15:08:59.318Z,8.4
2018-01-17T15:10:09.690Z,8.42
2018-01-17T15:11:19.753Z,8.39
2018-01-17T15:12:29.835Z,8.36
2018-01-17T15:13:39.910Z,8.28
2018-01-17T15:14:50.220Z,8.25
2018-01-17T15:16:00.391Z,8.31
2018-01-17T15:17:10.168Z,8.21
2018-01-17T15:18:20.288Z,8.17
2018-01-17T15:19:30.103Z,8.13
2018-01-17T15:20:40.162Z,8.21
2018-01-17T15:21:50.226Z,8.14
2018-01-17T15:23:00.296Z,8.07
2018-01-17T15:24:10.092Z,8.07
2018-01-17T15:25:20.155Z,8.03
2018-01-17T15:26:30.197Z,8.03
2018-01-17T15:27:40.271Z,8.01
2018-01-17T15:28:50.341Z,7.91
2018-01-17T15:30:00.399Z,7.93
2018-01-17T15:31:10.462Z,7.92
2018-01-17T15:32:20.527Z,7.86
2018-01-17T15:33:30.633Z,7.88
2018-01-17T15:34:40.714Z,7.98
2018-01-17T15:35:50.258Z,7.89
2018-01-17T15:37:00.317Z,7.91
2018-01-17T15:38:10.125Z,7.92
2018-01-17T15:39:20.226Z,7.91
2018-01-17T15:40:30.329Z,7.88
2018-01-17T15:41:39.903Z,7.88
2018-01-17T15:42:49.450Z,7.78
2018-01-17T15:43:59.531Z,7.92
2018-01-17T15:45:09.636Z,7.82
2018-01-17T15:46:19.722Z,7.86
2018-01-17T15:47:29.774Z,7.77
2018-01-17T15:48:39.835Z,7.7
2018-01-17T15:49:49.931Z,7.64
2018-01-17T15:51:00.128Z,7.68
2018-01-17T15:52:10.204Z,7.7
2018-01-17T15:53:20.344Z,7.63
2018-01-17T15:54:30.425Z,7.63
2018-01-17T15:55:40.483Z,7.64
2018-01-17T15:56:50.089Z,7.68
2018-01-17T15:58:00.140Z,7.68
2018-01-17T15:59:10.213Z,7.73